Jolly Acres, South Dakota
Current Conditions -  °F | °C
As of 4:01 AM on Friday 31 Oct 2014 (Local Time) from KRAP Reporting Station
Haze Haze  
Wind Chill: 22°   Ceiling: 200
Heat Index: 31°   Visibility: 3mi
Dew Point: 30°   Wind: 12mph
Humidity: 96%   Direction: 160°SSE
Pressure: 30.44"   Gusts: NA
Location:  44.0731°N, 103.205°W
Report Text: KRAP 311001Z 16010KT 3SM BR OVC002 M01/M01 A3044 RMK AO2 T10061011
Loading
Personal Weather Stations






























Interactive Weather Map
Tropical Storm Tracking
New forecast layout! Learn more

10-Day Weather Forecast

Advertisements
Track Severe Weather on mobile